Kleingorschen, Germany

7:56 AM CEST on June 26, 2017 (GMT +0200)
Lützower Straße | | Change Station

Elev 482 ft 51.22 °N, 12.19 °E | Updated 13 minutes ago

Partly Cloudy
Partly Cloudy
66.9 °F
Feels Like 66.9 °F
N
3.7
Wind Variable Wind from WSW
Gusts 9.9 mph

Today
High -- | Low -- °F
--% Chance of Precip.
Yesterday
High -- | Low -- °F
Precip. -- in
Pressure 29.83 in
Visibility 6.2 miles
Clouds Few 2000 ft
Scattered Clouds 6000 ft
Mostly Cloudy 10000 ft
Dew Point 57 °F
Humidity 69%
Rainfall 0.00 in
Snow Depth Not available.
4:57 AM 9:31 PM
Waxing Crescent, 7% visible
METAR EDDP 260550Z 25016KT 9999 FEW020 SCT060 BKN100 19/13 Q1010 NOSIG
Pressure 29.83 in
Visibility 6.2 miles
Clouds Few 2000 ft
Scattered Clouds 6000 ft
Mostly Cloudy 10000 ft
Dew Point 57 °F
Humidity 69%
Rainfall 0.00 in
Snow Depth Not available.
4:57 AM 9:31 PM
Waxing Crescent, 7% visible
METAR EDDP 260550Z 25016KT 9999 FEW020 SCT060 BKN100 19/13 Q1010 NOSIG

Get Severe Weather Alerts

Thanks for signing up!

Be on the lookout for a verification email in your inbox.

You'll start receiving the daily forecast at 6 AM.

×

10-Day Weather Forecast

×

Almanac

Astronomy

Jun. 26, 2017 Rise Set
Actual Time
Civil Twilight
Nautical Twilight
Astronomical Twilight
Moon
Length of Visible Light
Length of Day
Tomorrow will be .
, % of the Moon is Illuminated

Today's Extremes

Country Highs Country Lows

Community

WunderPhotos

Category 6

Welcome to Category 6. This is the collective home for Weather Underground's featured writeups by Dr. Jeff Masters (right), Bob Henson (left), Chris Burt, and other regular contributors.

Nearby

Air Quality

  Air Quality AQ Index Pollutant
Not available.

Snow Depth

Station Depth Elevation

Earthquake Activity

City Distance Mag. Time & Date
Minimum magnitude displayed is 2.5.

Coastal Water Temperatures

Place Temperature

Stations

Nearby Weather Stations

Station Location Temp. Windchill Dew Point Humidity Wind Precip. Elev Updated Type